sensor_id;sensor_type;location;lat;lon;timestamp;P1;durP1;ratioP1;P2;durP2;ratioP2
1601;SDS011;794;48.592;9.634;2023-04-28T00:00:06;4.23;;;3.80;;
1601;SDS011;794;48.592;9.634;2023-04-28T00:02:35;4.83;;;4.20;;
1601;SDS011;794;48.592;9.634;2023-04-28T00:05:03;4.70;;;4.00;;
1601;SDS011;794;48.592;9.634;2023-04-28T00:07:30;3.90;;;3.37;;
1601;SDS011;794;48.592;9.634;2023-04-28T00:09:57;3.73;;;3.17;;
1601;SDS011;794;48.592;9.634;2023-04-28T00:12:29;7.70;;;3.87;;
1601;SDS011;794;48.592;9.634;2023-04-28T00:14:59;6.03;;;3.80;;
1601;SDS011;794;48.592;9.634;2023-04-28T00:17:29;5.40;;;3.90;;
1601;SDS011;794;48.592;9.634;2023-04-28T00:19:59;3.60;;;3.30;;
1601;SDS011;794;48.592;9.634;2023-04-28T00:22:28;4.53;;;3.60;;
1601;SDS011;794;48.592;9.634;2023-04-28T00:24:55;5.57;;;4.10;;
1601;SDS011;794;48.592;9.634;2023-04-28T00:27:22;4.23;;;3.83;;
1601;SDS011;794;48.592;9.634;2023-04-28T00:29:50;4.17;;;3.73;;
1601;SDS011;794;48.592;9.634;2023-04-28T00:32:17;3.93;;;3.57;;
1601;SDS011;794;48.592;9.634;2023-04-28T00:34:48;4.60;;;4.10;;
1601;SDS011;794;48.592;9.634;2023-04-28T00:37:15;3.70;;;3.40;;
1601;SDS011;794;48.592;9.634;2023-04-28T00:39:42;5.57;;;3.70;;
1601;SDS011;794;48.592;9.634;2023-04-28T00:42:11;3.50;;;3.20;;
1601;SDS011;794;48.592;9.634;2023-04-28T00:44:38;4.17;;;3.77;;
1601;SDS011;794;48.592;9.634;2023-04-28T00:47:07;4.70;;;3.73;;
1601;SDS011;794;48.592;9.634;2023-04-28T00:49:34;4.07;;;3.67;;
1601;SDS011;794;48.592;9.634;2023-04-28T00:52:03;4.10;;;2.90;;
1601;SDS011;794;48.592;9.634;2023-04-28T00:54:31;5.20;;;3.87;;
1601;SDS011;794;48.592;9.634;2023-04-28T00:56:58;4.20;;;2.90;;
1601;SDS011;794;48.592;9.634;2023-04-28T00:59:29;2.80;;;2.50;;
1601;SDS011;794;48.592;9.634;2023-04-28T01:01:59;4.80;;;3.07;;
1601;SDS011;794;48.592;9.634;2023-04-28T01:04:32;2.90;;;2.70;;
1601;SDS011;794;48.592;9.634;2023-04-28T01:07:03;3.93;;;3.53;;
1601;SDS011;794;48.592;9.634;2023-04-28T01:09:33;3.97;;;2.57;;
1601;SDS011;794;48.592;9.634;2023-04-28T01:12:02;3.47;;;3.17;;
1601;SDS011;794;48.592;9.634;2023-04-28T01:14:31;3.07;;;2.77;;
1601;SDS011;794;48.592;9.634;2023-04-28T01:16:58;3.50;;;3.20;;
1601;SDS011;794;48.592;9.634;2023-04-28T01:19:25;3.90;;;2.50;;
1601;SDS011;794;48.592;9.634;2023-04-28T01:21:57;4.03;;;3.73;;
1601;SDS011;794;48.592;9.634;2023-04-28T01:24:27;5.67;;;4.33;;
1601;SDS011;794;48.592;9.634;2023-04-28T01:26:56;4.40;;;4.00;;
1601;SDS011;794;48.592;9.634;2023-04-28T01:29:22;6.00;;;4.10;;
1601;SDS011;794;48.592;9.634;2023-04-28T01:31:51;3.93;;;3.63;;
1601;SDS011;794;48.592;9.634;2023-04-28T01:34:18;3.93;;;3.17;;
1601;SDS011;794;48.592;9.634;2023-04-28T01:36:45;3.63;;;2.87;;
1601;SDS011;794;48.592;9.634;2023-04-28T01:39:12;3.33;;;2.87;;
1601;SDS011;794;48.592;9.634;2023-04-28T01:41:40;2.87;;;2.60;;
1601;SDS011;794;48.592;9.634;2023-04-28T01:44:07;2.90;;;2.70;;
1601;SDS011;794;48.592;9.634;2023-04-28T01:46:35;2.47;;;2.27;;
1601;SDS011;794;48.592;9.634;2023-04-28T01:49:02;3.20;;;2.87;;
1601;SDS011;794;48.592;9.634;2023-04-28T01:51:31;2.80;;;2.47;;
1601;SDS011;794;48.592;9.634;2023-04-28T01:53:57;3.37;;;3.03;;
1601;SDS011;794;48.592;9.634;2023-04-28T01:56:27;5.57;;;2.80;;
1601;SDS011;794;48.592;9.634;2023-04-28T01:58:55;3.10;;;2.80;;
1601;SDS011;794;48.592;9.634;2023-04-28T02:01:22;2.70;;;2.50;;
1601;SDS011;794;48.592;9.634;2023-04-28T02:03:51;8.73;;;3.13;;
1601;SDS011;794;48.592;9.634;2023-04-28T02:06:19;7.63;;;3.03;;
1601;SDS011;794;48.592;9.634;2023-04-28T02:08:51;5.00;;;2.90;;
1601;SDS011;794;48.592;9.634;2023-04-28T02:11:18;3.93;;;2.23;;
1601;SDS011;794;48.592;9.634;2023-04-28T02:13:47;3.30;;;2.67;;
1601;SDS011;794;48.592;9.634;2023-04-28T02:16:19;3.10;;;2.80;;
1601;SDS011;794;48.592;9.634;2023-04-28T02:18:48;6.97;;;2.60;;
1601;SDS011;794;48.592;9.634;2023-04-28T02:21:19;3.53;;;2.93;;
1601;SDS011;794;48.592;9.634;2023-04-28T02:23:48;3.30;;;2.70;;
1601;SDS011;794;48.592;9.634;2023-04-28T02:26:15;3.40;;;3.10;;
1601;SDS011;794;48.592;9.634;2023-04-28T02:28:42;2.80;;;2.60;;
1601;SDS011;794;48.592;9.634;2023-04-28T02:31:09;2.83;;;2.63;;
1601;SDS011;794;48.592;9.634;2023-04-28T02:33:39;3.30;;;3.00;;
1601;SDS011;794;48.592;9.634;2023-04-28T02:36:11;2.90;;;2.33;;
1601;SDS011;794;48.592;9.634;2023-04-28T02:38:38;2.87;;;2.67;;
1601;SDS011;794;48.592;9.634;2023-04-28T02:41:06;2.30;;;2.10;;
1601;SDS011;794;48.592;9.634;2023-04-28T02:43:34;3.67;;;2.93;;
1601;SDS011;794;48.592;9.634;2023-04-28T02:46:06;3.13;;;2.57;;
1601;SDS011;794;48.592;9.634;2023-04-28T02:48:33;3.70;;;2.47;;
1601;SDS011;794;48.592;9.634;2023-04-28T02:51:02;4.03;;;2.73;;
1601;SDS011;794;48.592;9.634;2023-04-28T02:53:30;3.07;;;2.87;;
1601;SDS011;794;48.592;9.634;2023-04-28T02:55:58;2.60;;;2.40;;
1601;SDS011;794;48.592;9.634;2023-04-28T02:58:28;2.60;;;2.43;;
1601;SDS011;794;48.592;9.634;2023-04-28T03:00:57;3.30;;;2.93;;
1601;SDS011;794;48.592;9.634;2023-04-28T03:03:28;3.30;;;3.00;;
1601;SDS011;794;48.592;9.634;2023-04-28T03:05:56;2.57;;;2.43;;
1601;SDS011;794;48.592;9.634;2023-04-28T03:08:27;3.63;;;2.83;;
1601;SDS011;794;48.592;9.634;2023-04-28T03:10:54;8.47;;;2.80;;
1601;SDS011;794;48.592;9.634;2023-04-28T03:13:26;2.00;;;1.83;;
1601;SDS011;794;48.592;9.634;2023-04-28T03:15:54;4.23;;;2.40;;
1601;SDS011;794;48.592;9.634;2023-04-28T03:18:23;3.17;;;2.80;;
1601;SDS011;794;48.592;9.634;2023-04-28T03:20:50;3.00;;;2.50;;
1601;SDS011;794;48.592;9.634;2023-04-28T03:23:17;2.30;;;2.00;;
1601;SDS011;794;48.592;9.634;2023-04-28T03:25:46;5.23;;;3.03;;
1601;SDS011;794;48.592;9.634;2023-04-28T03:28:13;2.90;;;2.50;;
1601;SDS011;794;48.592;9.634;2023-04-28T03:30:42;2.53;;;2.30;;
1601;SDS011;794;48.592;9.634;2023-04-28T03:33:09;2.60;;;2.40;;
1601;SDS011;794;48.592;9.634;2023-04-28T03:35:36;2.93;;;2.67;;
1601;SDS011;794;48.592;9.634;2023-04-28T03:38:02;3.60;;;2.40;;
1601;SDS011;794;48.592;9.634;2023-04-28T03:40:31;2.60;;;2.30;;
1601;SDS011;794;48.592;9.634;2023-04-28T03:42:59;4.10;;;2.93;;
1601;SDS011;794;48.592;9.634;2023-04-28T03:45:29;2.73;;;2.53;;
1601;SDS011;794;48.592;9.634;2023-04-28T03:47:58;2.43;;;2.23;;
1601;SDS011;794;48.592;9.634;2023-04-28T03:50:25;2.50;;;2.30;;
1601;SDS011;794;48.592;9.634;2023-04-28T03:52:52;3.83;;;2.47;;
1601;SDS011;794;48.592;9.634;2023-04-28T03:55:19;2.57;;;2.37;;
1601;SDS011;794;48.592;9.634;2023-04-28T03:57:52;3.87;;;2.07;;
1601;SDS011;794;48.592;9.634;2023-04-28T04:00:23;2.80;;;2.03;;
1601;SDS011;794;48.592;9.634;2023-04-28T04:02:50;3.83;;;3.53;;
1601;SDS011;794;48.592;9.634;2023-04-28T04:05:17;3.17;;;2.50;;
1601;SDS011;794;48.592;9.634;2023-04-28T04:07:44;3.37;;;3.07;;
1601;SDS011;794;48.592;9.634;2023-04-28T04:10:14;2.93;;;2.73;;
1601;SDS011;794;48.592;9.634;2023-04-28T04:12:44;8.13;;;3.57;;
1601;SDS011;794;48.592;9.634;2023-04-28T04:15:10;3.60;;;3.30;;
1601;SDS011;794;48.592;9.634;2023-04-28T04:17:39;3.30;;;3.10;;
1601;SDS011;794;48.592;9.634;2023-04-28T04:20:08;3.33;;;2.90;;
1601;SDS011;794;48.592;9.634;2023-04-28T04:22:35;3.30;;;2.60;;
1601;SDS011;794;48.592;9.634;2023-04-28T04:25:02;3.47;;;3.17;;
1601;SDS011;794;48.592;9.634;2023-04-28T04:27:32;6.13;;;3.60;;
1601;SDS011;794;48.592;9.634;2023-04-28T04:29:59;3.30;;;3.00;;
1601;SDS011;794;48.592;9.634;2023-04-28T04:32:29;3.00;;;2.57;;
1601;SDS011;794;48.592;9.634;2023-04-28T04:35:02;6.80;;;3.10;;
1601;SDS011;794;48.592;9.634;2023-04-28T04:37:29;2.63;;;2.43;;
1601;SDS011;794;48.592;9.634;2023-04-28T04:39:59;3.50;;;2.53;;
1601;SDS011;794;48.592;9.634;2023-04-28T04:42:28;8.03;;;2.73;;
1601;SDS011;794;48.592;9.634;2023-04-28T04:44:55;3.70;;;2.70;;
1601;SDS011;794;48.592;9.634;2023-04-28T04:47:22;3.20;;;2.90;;
1601;SDS011;794;48.592;9.634;2023-04-28T04:49:51;5.87;;;3.00;;
1601;SDS011;794;48.592;9.634;2023-04-28T04:52:22;3.23;;;2.83;;
1601;SDS011;794;48.592;9.634;2023-04-28T04:54:49;3.23;;;2.93;;
1601;SDS011;794;48.592;9.634;2023-04-28T04:57:20;3.40;;;3.10;;
1601;SDS011;794;48.592;9.634;2023-04-28T04:59:47;3.43;;;3.00;;
1601;SDS011;794;48.592;9.634;2023-04-28T05:02:16;3.90;;;2.80;;
1601;SDS011;794;48.592;9.634;2023-04-28T05:04:43;3.83;;;3.33;;
1601;SDS011;794;48.592;9.634;2023-04-28T05:07:14;5.10;;;2.97;;
1601;SDS011;794;48.592;9.634;2023-04-28T05:09:45;3.73;;;3.43;;
1601;SDS011;794;48.592;9.634;2023-04-28T05:12:12;3.60;;;2.90;;
1601;SDS011;794;48.592;9.634;2023-04-28T05:14:42;3.97;;;3.57;;
1601;SDS011;794;48.592;9.634;2023-04-28T05:17:13;5.17;;;3.87;;
1601;SDS011;794;48.592;9.634;2023-04-28T05:19:41;5.20;;;3.67;;
1601;SDS011;794;48.592;9.634;2023-04-28T05:22:10;3.67;;;3.33;;
1601;SDS011;794;48.592;9.634;2023-04-28T05:24:37;4.53;;;4.13;;
1601;SDS011;794;48.592;9.634;2023-04-28T05:27:07;5.70;;;4.43;;
1601;SDS011;794;48.592;9.634;2023-04-28T05:29:34;3.90;;;3.50;;
1601;SDS011;794;48.592;9.634;2023-04-28T05:32:06;4.07;;;3.67;;
1601;SDS011;794;48.592;9.634;2023-04-28T05:34:33;3.87;;;3.47;;
1601;SDS011;794;48.592;9.634;2023-04-28T05:37:02;5.27;;;3.47;;
1601;SDS011;794;48.592;9.634;2023-04-28T05:39:31;7.60;;;3.70;;
1601;SDS011;794;48.592;9.634;2023-04-28T05:41:58;5.13;;;3.50;;
1601;SDS011;794;48.592;9.634;2023-04-28T05:44:29;4.90;;;3.73;;
1601;SDS011;794;48.592;9.634;2023-04-28T05:46:59;5.57;;;4.03;;
1601;SDS011;794;48.592;9.634;2023-04-28T05:49:29;6.00;;;4.37;;
1601;SDS011;794;48.592;9.634;2023-04-28T05:51:59;4.60;;;4.07;;
1601;SDS011;794;48.592;9.634;2023-04-28T05:54:26;3.70;;;3.13;;
1601;SDS011;794;48.592;9.634;2023-04-28T05:56:53;6.10;;;3.70;;
1601;SDS011;794;48.592;9.634;2023-04-28T05:59:22;3.80;;;2.90;;
1601;SDS011;794;48.592;9.634;2023-04-28T06:01:51;4.60;;;4.20;;
1601;SDS011;794;48.592;9.634;2023-04-28T06:04:18;5.70;;;3.47;;
1601;SDS011;794;48.592;9.634;2023-04-28T06:06:46;4.07;;;3.70;;
1601;SDS011;794;48.592;9.634;2023-04-28T06:09:13;3.80;;;3.40;;
1601;SDS011;794;48.592;9.634;2023-04-28T06:11:41;3.80;;;3.40;;
1601;SDS011;794;48.592;9.634;2023-04-28T06:14:08;4.10;;;3.23;;
1601;SDS011;794;48.592;9.634;2023-04-28T06:16:38;4.33;;;3.77;;
1601;SDS011;794;48.592;9.634;2023-04-28T06:19:09;4.57;;;3.90;;
1601;SDS011;794;48.592;9.634;2023-04-28T06:21:38;5.30;;;4.03;;
1601;SDS011;794;48.592;9.634;2023-04-28T06:24:07;5.10;;;4.20;;
1601;SDS011;794;48.592;9.634;2023-04-28T06:26:38;4.83;;;4.33;;
1601;SDS011;794;48.592;9.634;2023-04-28T06:29:07;5.73;;;5.23;;
1601;SDS011;794;48.592;9.634;2023-04-28T06:31:34;6.37;;;5.23;;
1601;SDS011;794;48.592;9.634;2023-04-28T06:34:03;6.17;;;5.57;;
1601;SDS011;794;48.592;9.634;2023-04-28T06:36:32;9.50;;;4.60;;
1601;SDS011;794;48.592;9.634;2023-04-28T06:39:03;4.90;;;4.50;;
1601;SDS011;794;48.592;9.634;2023-04-28T06:41:31;7.37;;;5.50;;
1601;SDS011;794;48.592;9.634;2023-04-28T06:43:58;4.30;;;3.90;;
1601;SDS011;794;48.592;9.634;2023-04-28T06:46:28;8.17;;;5.10;;
1601;SDS011;794;48.592;9.634;2023-04-28T06:48:57;6.50;;;5.47;;
1601;SDS011;794;48.592;9.634;2023-04-28T06:51:24;5.50;;;4.10;;
1601;SDS011;794;48.592;9.634;2023-04-28T06:53:55;4.80;;;3.77;;
1601;SDS011;794;48.592;9.634;2023-04-28T06:56:22;5.80;;;4.37;;
1601;SDS011;794;48.592;9.634;2023-04-28T06:58:53;4.60;;;4.20;;
1601;SDS011;794;48.592;9.634;2023-04-28T07:01:21;4.97;;;4.47;;
1601;SDS011;794;48.592;9.634;2023-04-28T07:03:48;4.30;;;3.90;;
1601;SDS011;794;48.592;9.634;2023-04-28T07:06:17;4.03;;;3.63;;
1601;SDS011;794;48.592;9.634;2023-04-28T07:08:47;6.63;;;4.20;;
1601;SDS011;794;48.592;9.634;2023-04-28T07:11:16;5.10;;;4.57;;
1601;SDS011;794;48.592;9.634;2023-04-28T07:13:43;4.30;;;3.87;;
1601;SDS011;794;48.592;9.634;2023-04-28T07:16:15;4.37;;;4.00;;
1601;SDS011;794;48.592;9.634;2023-04-28T07:18:44;3.70;;;3.40;;
1601;SDS011;794;48.592;9.634;2023-04-28T07:21:14;3.83;;;3.53;;
1601;SDS011;794;48.592;9.634;2023-04-28T07:23:41;3.63;;;3.33;;
1601;SDS011;794;48.592;9.634;2023-04-28T07:26:12;2.83;;;2.50;;
1601;SDS011;794;48.592;9.634;2023-04-28T07:28:42;3.87;;;3.27;;
1601;SDS011;794;48.592;9.634;2023-04-28T07:31:09;2.80;;;2.60;;
1601;SDS011;794;48.592;9.634;2023-04-28T07:33:38;2.57;;;2.40;;
1601;SDS011;794;48.592;9.634;2023-04-28T07:36:06;3.43;;;3.20;;
1601;SDS011;794;48.592;9.634;2023-04-28T07:38:33;3.43;;;3.13;;
1601;SDS011;794;48.592;9.634;2023-04-28T07:41:01;2.70;;;2.50;;
1601;SDS011;794;48.592;9.634;2023-04-28T07:43:28;2.53;;;2.33;;
1601;SDS011;794;48.592;9.634;2023-04-28T07:46:01;1.83;;;1.73;;
1601;SDS011;794;48.592;9.634;2023-04-28T07:48:28;2.43;;;2.17;;
1601;SDS011;794;48.592;9.634;2023-04-28T07:50:56;1.90;;;1.80;;
1601;SDS011;794;48.592;9.634;2023-04-28T07:53:23;1.87;;;1.77;;
1601;SDS011;794;48.592;9.634;2023-04-28T07:55:53;1.50;;;1.33;;
1601;SDS011;794;48.592;9.634;2023-04-28T07:58:22;1.63;;;1.47;;
1601;SDS011;794;48.592;9.634;2023-04-28T08:00:51;1.63;;;1.40;;
1601;SDS011;794;48.592;9.634;2023-04-28T08:03:22;1.10;;;1.00;;
1601;SDS011;794;48.592;9.634;2023-04-28T08:05:49;1.40;;;1.20;;
1601;SDS011;794;48.592;9.634;2023-04-28T08:08:21;1.40;;;1.30;;
1601;SDS011;794;48.592;9.634;2023-04-28T08:10:49;1.43;;;1.33;;
1601;SDS011;794;48.592;9.634;2023-04-28T08:13:16;1.30;;;1.20;;
1601;SDS011;794;48.592;9.634;2023-04-28T08:15:43;1.47;;;1.37;;
1601;SDS011;794;48.592;9.634;2023-04-28T08:18:12;1.07;;;1.00;;
1601;SDS011;794;48.592;9.634;2023-04-28T08:20:40;1.30;;;1.20;;
1601;SDS011;794;48.592;9.634;2023-04-28T08:23:07;1.13;;;1.03;;
1601;SDS011;794;48.592;9.634;2023-04-28T08:25:34;1.20;;;1.10;;
1601;SDS011;794;48.592;9.634;2023-04-28T08:28:04;1.80;;;1.47;;
1601;SDS011;794;48.592;9.634;2023-04-28T08:30:33;1.17;;;1.07;;
1601;SDS011;794;48.592;9.634;2023-04-28T08:33:02;1.30;;;1.20;;
1601;SDS011;794;48.592;9.634;2023-04-28T08:35:31;1.30;;;1.20;;
1601;SDS011;794;48.592;9.634;2023-04-28T08:38:02;1.80;;;1.70;;
1601;SDS011;794;48.592;9.634;2023-04-28T08:40:30;2.10;;;1.90;;
1601;SDS011;794;48.592;9.634;2023-04-28T08:42:57;0.80;;;0.80;;
1601;SDS011;794;48.592;9.634;2023-04-28T08:45:28;1.07;;;0.97;;
1601;SDS011;794;48.592;9.634;2023-04-28T08:47:56;1.70;;;1.60;;
1601;SDS011;794;48.592;9.634;2023-04-28T08:50:28;3.20;;;1.50;;
1601;SDS011;794;48.592;9.634;2023-04-28T08:53:01;1.00;;;0.90;;
1601;SDS011;794;48.592;9.634;2023-04-28T08:55:29;3.67;;;1.43;;
1601;SDS011;794;48.592;9.634;2023-04-28T08:58:02;2.00;;;1.07;;
1601;SDS011;794;48.592;9.634;2023-04-28T09:00:30;1.20;;;1.10;;
1601;SDS011;794;48.592;9.634;2023-04-28T09:02:57;1.67;;;1.57;;
1601;SDS011;794;48.592;9.634;2023-04-28T09:05:24;2.37;;;1.20;;
1601;SDS011;794;48.592;9.634;2023-04-28T09:07:54;0.87;;;0.87;;
1601;SDS011;794;48.592;9.634;2023-04-28T09:10:29;2.60;;;1.77;;
1601;SDS011;794;48.592;9.634;2023-04-28T09:12:56;1.07;;;0.97;;
1601;SDS011;794;48.592;9.634;2023-04-28T09:15:29;2.43;;;1.50;;
1601;SDS011;794;48.592;9.634;2023-04-28T09:18:02;1.80;;;1.60;;
1601;SDS011;794;48.592;9.634;2023-04-28T09:20:32;3.00;;;2.70;;
1601;SDS011;794;48.592;9.634;2023-04-28T09:23:14;1.60;;;1.50;;
1601;SDS011;794;48.592;9.634;2023-04-28T09:25:59;1.70;;;1.60;;
1601;SDS011;794;48.592;9.634;2023-04-28T09:28:32;2.07;;;1.70;;
1601;SDS011;794;48.592;9.634;2023-04-28T09:31:00;1.30;;;1.20;;
1601;SDS011;794;48.592;9.634;2023-04-28T09:33:27;1.50;;;1.40;;
1601;SDS011;794;48.592;9.634;2023-04-28T09:35:57;1.60;;;1.43;;
1601;SDS011;794;48.592;9.634;2023-04-28T09:38:27;0.80;;;0.80;;
1601;SDS011;794;48.592;9.634;2023-04-28T09:40:58;0.90;;;0.90;;
1601;SDS011;794;48.592;9.634;2023-04-28T09:43:28;1.13;;;1.03;;
1601;SDS011;794;48.592;9.634;2023-04-28T09:45:57;1.20;;;1.00;;
1601;SDS011;794;48.592;9.634;2023-04-28T09:48:28;1.20;;;1.10;;
1601;SDS011;794;48.592;9.634;2023-04-28T09:50:58;0.97;;;0.90;;
1601;SDS011;794;48.592;9.634;2023-04-28T09:53:26;1.10;;;1.10;;
1601;SDS011;794;48.592;9.634;2023-04-28T09:55:54;0.83;;;0.83;;
1601;SDS011;794;48.592;9.634;2023-04-28T09:58:23;2.03;;;1.00;;
1601;SDS011;794;48.592;9.634;2023-04-28T10:00:52;2.87;;;1.00;;
1601;SDS011;794;48.592;9.634;2023-04-28T10:03:22;1.60;;;1.17;;
1601;SDS011;794;48.592;9.634;2023-04-28T10:05:51;1.10;;;0.50;;
1601;SDS011;794;48.592;9.634;2023-04-28T10:08:19;0.97;;;0.83;;
1601;SDS011;794;48.592;9.634;2023-04-28T10:10:58;0.77;;;0.77;;
1601;SDS011;794;48.592;9.634;2023-04-28T10:13:28;2.00;;;0.70;;
1601;SDS011;794;48.592;9.634;2023-04-28T10:15:56;0.77;;;0.70;;
1601;SDS011;794;48.592;9.634;2023-04-28T10:18:23;0.83;;;0.73;;
1601;SDS011;794;48.592;9.634;2023-04-28T10:20:55;1.00;;;0.90;;
1601;SDS011;794;48.592;9.634;2023-04-28T10:27:01;1.93;;;0.80;;
1601;SDS011;794;48.592;9.634;2023-04-28T10:29:39;1.00;;;0.90;;
1601;SDS011;794;48.592;9.634;2023-04-28T10:32:19;1.60;;;0.70;;
1601;SDS011;794;48.592;9.634;2023-04-28T10:35:02;1.00;;;0.90;;
1601;SDS011;794;48.592;9.634;2023-04-28T10:38:09;1.30;;;1.00;;
1601;SDS011;794;48.592;9.634;2023-04-28T10:40:39;0.80;;;0.80;;
1601;SDS011;794;48.592;9.634;2023-04-28T10:43:07;1.07;;;0.90;;
1601;SDS011;794;48.592;9.634;2023-04-28T10:48:57;0.60;;;0.60;;
1601;SDS011;794;48.592;9.634;2023-04-28T10:51:32;0.60;;;0.60;;
1601;SDS011;794;48.592;9.634;2023-04-28T10:54:17;0.50;;;0.50;;
1601;SDS011;794;48.592;9.634;2023-04-28T10:59:54;0.60;;;0.50;;
1601;SDS011;794;48.592;9.634;2023-04-28T11:03:03;0.60;;;0.50;;
1601;SDS011;794;48.592;9.634;2023-04-28T11:05:33;0.50;;;0.40;;
1601;SDS011;794;48.592;9.634;2023-04-28T11:11:13;0.70;;;0.50;;
1601;SDS011;794;48.592;9.634;2023-04-28T11:13:48;1.27;;;0.57;;
1601;SDS011;794;48.592;9.634;2023-04-28T11:16:19;0.60;;;0.47;;
1601;SDS011;794;48.592;9.634;2023-04-28T11:18:58;0.90;;;0.50;;
1601;SDS011;794;48.592;9.634;2023-04-28T11:21:29;0.70;;;0.40;;
1601;SDS011;794;48.592;9.634;2023-04-28T11:23:59;0.97;;;0.40;;
1601;SDS011;794;48.592;9.634;2023-04-28T11:26:35;0.50;;;0.50;;
1601;SDS011;794;48.592;9.634;2023-04-28T11:29:33;4.20;;;0.80;;
1601;SDS011;794;48.592;9.634;2023-04-28T11:32:04;2.20;;;0.60;;
1601;SDS011;794;48.592;9.634;2023-04-28T11:34:34;1.40;;;0.70;;
1601;SDS011;794;48.592;9.634;2023-04-28T11:37:03;0.90;;;0.50;;
1601;SDS011;794;48.592;9.634;2023-04-28T11:39:32;1.53;;;1.00;;
1601;SDS011;794;48.592;9.634;2023-04-28T11:42:07;3.57;;;3.13;;
1601;SDS011;794;48.592;9.634;2023-04-28T11:44:39;0.50;;;0.40;;
1601;SDS011;794;48.592;9.634;2023-04-28T11:47:27;1.20;;;0.57;;
1601;SDS011;794;48.592;9.634;2023-04-28T11:50:03;1.20;;;0.43;;
1601;SDS011;794;48.592;9.634;2023-04-28T11:52:51;1.60;;;1.50;;
1601;SDS011;794;48.592;9.634;2023-04-28T11:55:18;4.70;;;4.20;;
1601;SDS011;794;48.592;9.634;2023-04-28T11:57:46;1.80;;;1.70;;
1601;SDS011;794;48.592;9.634;2023-04-28T12:00:15;1.23;;;0.80;;
1601;SDS011;794;48.592;9.634;2023-04-28T12:02:46;0.80;;;0.80;;
1601;SDS011;794;48.592;9.634;2023-04-28T12:05:13;0.90;;;0.60;;
1601;SDS011;794;48.592;9.634;2023-04-28T12:07:41;0.67;;;0.53;;
1601;SDS011;794;48.592;9.634;2023-04-28T12:10:09;0.80;;;0.60;;
1601;SDS011;794;48.592;9.634;2023-04-28T12:12:39;0.70;;;0.60;;
1601;SDS011;794;48.592;9.634;2023-04-28T12:15:11;0.70;;;0.60;;
1601;SDS011;794;48.592;9.634;2023-04-28T12:17:40;1.37;;;0.80;;
1601;SDS011;794;48.592;9.634;2023-04-28T12:20:08;1.10;;;0.70;;
1601;SDS011;794;48.592;9.634;2023-04-28T12:22:43;1.20;;;0.83;;
1601;SDS011;794;48.592;9.634;2023-04-28T12:25:11;1.90;;;1.70;;
1601;SDS011;794;48.592;9.634;2023-04-28T12:27:57;1.30;;;0.60;;
1601;SDS011;794;48.592;9.634;2023-04-28T12:30:30;0.60;;;0.40;;
1601;SDS011;794;48.592;9.634;2023-04-28T12:33:01;3.60;;;0.70;;
1601;SDS011;794;48.592;9.634;2023-04-28T12:35:28;1.20;;;0.70;;
1601;SDS011;794;48.592;9.634;2023-04-28T12:37:58;0.70;;;0.60;;
1601;SDS011;794;48.592;9.634;2023-04-28T12:40:24;0.70;;;0.60;;
1601;SDS011;794;48.592;9.634;2023-04-28T12:42:52;2.13;;;0.70;;
1601;SDS011;794;48.592;9.634;2023-04-28T12:45:19;2.97;;;0.93;;
1601;SDS011;794;48.592;9.634;2023-04-28T12:47:46;0.60;;;0.60;;
1601;SDS011;794;48.592;9.634;2023-04-28T12:50:14;0.70;;;0.57;;
1601;SDS011;794;48.592;9.634;2023-04-28T12:52:41;0.90;;;0.80;;
1601;SDS011;794;48.592;9.634;2023-04-28T12:55:08;1.07;;;0.67;;
1601;SDS011;794;48.592;9.634;2023-04-28T12:57:37;0.70;;;0.70;;
1601;SDS011;794;48.592;9.634;2023-04-28T13:00:05;1.63;;;1.27;;
1601;SDS011;794;48.592;9.634;2023-04-28T13:02:33;1.37;;;0.80;;
1601;SDS011;794;48.592;9.634;2023-04-28T13:05:02;2.17;;;1.70;;
1601;SDS011;794;48.592;9.634;2023-04-28T13:07:30;1.10;;;0.80;;
1601;SDS011;794;48.592;9.634;2023-04-28T13:10:00;0.80;;;0.70;;
1601;SDS011;794;48.592;9.634;2023-04-28T13:12:27;1.10;;;1.00;;
1601;SDS011;794;48.592;9.634;2023-04-28T13:14:54;4.20;;;0.80;;
1601;SDS011;794;48.592;9.634;2023-04-28T13:17:29;3.50;;;2.90;;
1601;SDS011;794;48.592;9.634;2023-04-28T13:19:56;1.97;;;1.07;;
1601;SDS011;794;48.592;9.634;2023-04-28T13:22:23;1.20;;;1.10;;
1601;SDS011;794;48.592;9.634;2023-04-28T13:24:52;1.43;;;1.00;;
1601;SDS011;794;48.592;9.634;2023-04-28T13:27:21;0.90;;;0.67;;
1601;SDS011;794;48.592;9.634;2023-04-28T13:29:49;0.60;;;0.60;;
1601;SDS011;794;48.592;9.634;2023-04-28T13:32:22;0.57;;;0.50;;
1601;SDS011;794;48.592;9.634;2023-04-28T13:34:51;0.93;;;0.83;;
1601;SDS011;794;48.592;9.634;2023-04-28T13:37:18;1.17;;;0.70;;
1601;SDS011;794;48.592;9.634;2023-04-28T13:39:47;0.60;;;0.60;;
1601;SDS011;794;48.592;9.634;2023-04-28T13:42:15;0.63;;;0.50;;
1601;SDS011;794;48.592;9.634;2023-04-28T13:44:42;1.13;;;0.53;;
1601;SDS011;794;48.592;9.634;2023-04-28T13:47:13;0.93;;;0.77;;
1601;SDS011;794;48.592;9.634;2023-04-28T13:49:43;1.17;;;0.90;;
1601;SDS011;794;48.592;9.634;2023-04-28T13:52:12;0.70;;;0.63;;
1601;SDS011;794;48.592;9.634;2023-04-28T13:54:40;2.80;;;0.70;;
1601;SDS011;794;48.592;9.634;2023-04-28T13:57:07;0.80;;;0.70;;
1601;SDS011;794;48.592;9.634;2023-04-28T13:59:38;1.00;;;0.83;;
1601;SDS011;794;48.592;9.634;2023-04-28T14:02:08;1.73;;;1.07;;
1601;SDS011;794;48.592;9.634;2023-04-28T14:04:35;0.80;;;0.80;;
1601;SDS011;794;48.592;9.634;2023-04-28T14:07:02;1.17;;;0.50;;
1601;SDS011;794;48.592;9.634;2023-04-28T14:09:29;0.90;;;0.50;;
1601;SDS011;794;48.592;9.634;2023-04-28T14:11:59;0.70;;;0.60;;
1601;SDS011;794;48.592;9.634;2023-04-28T14:14:26;2.20;;;0.60;;
1601;SDS011;794;48.592;9.634;2023-04-28T14:16:56;1.10;;;1.00;;
1601;SDS011;794;48.592;9.634;2023-04-28T14:19:23;1.47;;;0.60;;
1601;SDS011;794;48.592;9.634;2023-04-28T14:21:51;0.67;;;0.67;;
1601;SDS011;794;48.592;9.634;2023-04-28T14:24:18;2.23;;;0.60;;
1601;SDS011;794;48.592;9.634;2023-04-28T14:26:48;0.60;;;0.60;;
1601;SDS011;794;48.592;9.634;2023-04-28T14:29:16;1.10;;;0.60;;
1601;SDS011;794;48.592;9.634;2023-04-28T14:31:43;0.63;;;0.50;;
1601;SDS011;794;48.592;9.634;2023-04-28T14:34:12;0.80;;;0.60;;
1601;SDS011;794;48.592;9.634;2023-04-28T14:36:39;0.60;;;0.43;;
1601;SDS011;794;48.592;9.634;2023-04-28T14:39:07;0.87;;;0.73;;
1601;SDS011;794;48.592;9.634;2023-04-28T14:41:34;1.33;;;0.70;;
1601;SDS011;794;48.592;9.634;2023-04-28T14:44:01;1.60;;;0.90;;
1601;SDS011;794;48.592;9.634;2023-04-28T14:46:29;1.87;;;1.03;;
1601;SDS011;794;48.592;9.634;2023-04-28T14:48:56;2.13;;;0.80;;
1601;SDS011;794;48.592;9.634;2023-04-28T14:51:24;0.80;;;0.60;;
1601;SDS011;794;48.592;9.634;2023-04-28T14:53:54;0.70;;;0.60;;
1601;SDS011;794;48.592;9.634;2023-04-28T14:56:22;2.33;;;0.73;;
1601;SDS011;794;48.592;9.634;2023-04-28T14:58:49;1.77;;;1.10;;
1601;SDS011;794;48.592;9.634;2023-04-28T15:01:16;0.80;;;0.70;;
1601;SDS011;794;48.592;9.634;2023-04-28T15:03:43;0.90;;;0.50;;
1601;SDS011;794;48.592;9.634;2023-04-28T15:06:11;1.93;;;0.70;;
1601;SDS011;794;48.592;9.634;2023-04-28T15:08:39;1.00;;;0.60;;
1601;SDS011;794;48.592;9.634;2023-04-28T15:11:06;0.50;;;0.40;;
1601;SDS011;794;48.592;9.634;2023-04-28T15:13:33;0.70;;;0.60;;
1601;SDS011;794;48.592;9.634;2023-04-28T15:16:01;1.03;;;0.90;;
1601;SDS011;794;48.592;9.634;2023-04-28T15:18:28;0.90;;;0.70;;
1601;SDS011;794;48.592;9.634;2023-04-28T15:20:57;0.80;;;0.80;;
1601;SDS011;794;48.592;9.634;2023-04-28T15:23:25;0.90;;;0.50;;
1601;SDS011;794;48.592;9.634;2023-04-28T15:25:53;0.80;;;0.77;;
1601;SDS011;794;48.592;9.634;2023-04-28T15:28:23;1.60;;;0.90;;
1601;SDS011;794;48.592;9.634;2023-04-28T15:30:51;0.70;;;0.60;;
1601;SDS011;794;48.592;9.634;2023-04-28T15:33:18;1.10;;;1.00;;
1601;SDS011;794;48.592;9.634;2023-04-28T15:35:45;1.40;;;1.00;;
1601;SDS011;794;48.592;9.634;2023-04-28T15:38:12;0.83;;;0.83;;
1601;SDS011;794;48.592;9.634;2023-04-28T15:40:41;2.33;;;1.97;;
1601;SDS011;794;48.592;9.634;2023-04-28T15:43:16;3.17;;;2.00;;
1601;SDS011;794;48.592;9.634;2023-04-28T15:45:43;1.50;;;1.00;;
1601;SDS011;794;48.592;9.634;2023-04-28T15:48:11;1.30;;;1.20;;
1601;SDS011;794;48.592;9.634;2023-04-28T15:50:39;1.23;;;0.90;;
1601;SDS011;794;48.592;9.634;2023-04-28T15:53:06;1.17;;;0.70;;
1601;SDS011;794;48.592;9.634;2023-04-28T15:55:33;2.43;;;2.23;;